createdAt,value
2022-12-04T00:02:33.482Z,100954.38
2022-12-04T00:05:34.974Z,100952.00
2022-12-04T00:08:36.843Z,100951.13
2022-12-04T00:11:38.467Z,100956.00
2022-12-04T00:15:00.776Z,100946.28
2022-12-04T00:18:01.369Z,100942.72
2022-12-04T00:21:05.483Z,100946.28
2022-12-04T00:24:07.133Z,100945.44
2022-12-04T00:27:08.566Z,100943.88
2022-12-04T00:30:10.690Z,100944.75
2022-12-04T00:33:13.170Z,100947.47
2022-12-04T00:36:17.730Z,100949.31
2022-12-04T00:39:19.198Z,100951.31
2022-12-04T00:42:20.702Z,100944.19
2022-12-04T00:45:22.171Z,100943.34
2022-12-04T00:48:23.701Z,100948.06
2022-12-04T00:51:25.676Z,100940.91
2022-12-04T00:54:27.168Z,100938.38
2022-12-04T00:57:28.644Z,100938.50
2022-12-04T01:00:30.596Z,100940.38
2022-12-04T01:03:32.171Z,100940.50
2022-12-04T01:06:34.688Z,100939.66
2022-12-04T01:09:36.145Z,100944.38
2022-12-04T01:12:37.671Z,100940.81
2022-12-04T01:15:41.101Z,100937.13
2022-12-04T01:18:42.540Z,100934.53
2022-12-04T01:21:44.031Z,100931.81
2022-12-04T01:24:45.524Z,100926.41
2022-12-04T01:27:46.964Z,100930.13
2022-12-04T01:31:05.725Z,100933.69
2022-12-04T01:34:07.183Z,100927.69
2022-12-04T01:37:08.897Z,100929.56
2022-12-04T01:40:14.231Z,100919.72
2022-12-04T01:43:16.496Z,100916.28
2022-12-04T01:46:18.019Z,100921.00
2022-12-04T01:49:24.868Z,100913.03
2022-12-04T01:52:26.713Z,100914.88
2022-12-04T01:55:29.803Z,100914.03
2022-12-04T01:58:36.455Z,100914.88
2022-12-04T02:01:51.026Z,100912.16
2022-12-04T02:04:53.291Z,100913.19
2022-12-04T02:07:59.118Z,100909.44
2022-12-04T02:11:10.703Z,100911.31
2022-12-04T02:14:15.107Z,100906.91
2022-12-04T02:17:19.534Z,100910.47
2022-12-04T02:20:20.926Z,100910.78
2022-12-04T02:23:44.266Z,100914.34
2022-12-04T02:26:57.995Z,100907.03
2022-12-04T02:30:06.145Z,100906.31
2022-12-04T02:33:17.807Z,100908.19
2022-12-04T02:36:23.648Z,100899.50
2022-12-04T02:39:41.298Z,100898.50
2022-12-04T02:42:47.908Z,100904.09
2022-12-04T02:46:22.230Z,100902.22
2022-12-04T02:49:32.313Z,100899.50
2022-12-04T02:52:39.055Z,100901.38
2022-12-04T02:56:01.142Z,100894.94
2022-12-04T02:59:07.785Z,100890.53
2022-12-04T03:02:15.921Z,100886.06
2022-12-04T03:05:22.916Z,100891.50
2022-12-04T03:08:34.496Z,100895.25
2022-12-04T03:11:38.908Z,100896.22
2022-12-04T03:14:58.086Z,100897.25
2022-12-04T03:18:14.720Z,100900.97
2022-12-04T03:21:19.754Z,100892.13
2022-12-04T03:24:29.134Z,100886.84
2022-12-04T03:27:45.937Z,100889.53
2022-12-04T03:30:57.234Z,100887.84
2022-12-04T03:34:05.505Z,100894.25
2022-12-04T03:37:17.566Z,100882.56
2022-12-04T03:40:29.067Z,100889.84
2022-12-04T03:43:39.494Z,100883.41
2022-12-04T03:46:41.043Z,100878.28
2022-12-04T03:49:42.528Z,100874.72
2022-12-04T03:53:18.456Z,100878.16
2022-12-04T03:56:24.683Z,100881.00
2022-12-04T03:59:30.185Z,100885.56
2022-12-04T04:02:36.571Z,100886.59
2022-12-04T04:05:41.982Z,100885.72
2022-12-04T04:08:48.655Z,100883.16
2022-12-04T04:12:25.561Z,100879.63
2022-12-04T04:15:45.895Z,100885.19
2022-12-04T04:19:09.908Z,100886.88
2022-12-04T04:22:30.557Z,100889.75
2022-12-04T04:25:33.802Z,100894.03
2022-12-04T04:28:40.202Z,100884.16
2022-12-04T04:32:00.214Z,100886.88
2022-12-04T04:35:04.760Z,100888.75
2022-12-04T04:38:17.450Z,100876.72
2022-12-04T04:41:50.542Z,100881.31
2022-12-04T04:45:10.768Z,100879.75
2022-12-04T04:48:16.913Z,100889.75
2022-12-04T04:51:20.310Z,100891.63
2022-12-04T04:54:22.502Z,100881.91
2022-12-04T04:57:33.871Z,100883.63
2022-12-04T05:00:36.486Z,100881.03
2022-12-04T05:03:38.523Z,100882.91
2022-12-04T05:06:40.016Z,100885.78
2022-12-04T05:09:41.658Z,100884.78
2022-12-04T05:12:43.193Z,100893.75
2022-12-04T05:15:44.793Z,100889.19
2022-12-04T05:19:05.147Z,100891.75
2022-12-04T05:22:06.743Z,100899.91
2022-12-04T05:25:08.552Z,100903.47
2022-12-04T05:28:10.247Z,100902.63
2022-12-04T05:31:11.784Z,100900.75
2022-12-04T05:34:13.291Z,100892.78
2022-12-04T05:37:14.773Z,100903.63
2022-12-04T05:40:16.528Z,100900.91
2022-12-04T05:43:18.913Z,100897.31
2022-12-04T05:46:20.745Z,100901.91
2022-12-04T05:49:22.262Z,100889.34
2022-12-04T05:52:23.827Z,100893.94
2022-12-04T05:55:25.352Z,100894.78
2022-12-04T05:58:28.078Z,100892.91
2022-12-04T06:01:29.506Z,100897.31
2022-12-04T06:04:31.022Z,100894.59
2022-12-04T06:07:32.581Z,100892.91
2022-12-04T06:10:34.098Z,100894.78
2022-12-04T06:13:35.547Z,100885.78
2022-12-04T06:16:40.158Z,100889.34
2022-12-04T06:19:41.714Z,100893.94
2022-12-04T06:22:43.239Z,100899.50
2022-12-04T06:25:44.712Z,100898.66
2022-12-04T06:28:46.216Z,100904.06
2022-12-04T06:31:47.771Z,100898.94
2022-12-04T06:34:53.968Z,100909.50
2022-12-04T06:37:55.461Z,100912.50
2022-12-04T06:40:57.082Z,100911.63
2022-12-04T06:43:58.895Z,100903.50
2022-12-04T06:47:01.116Z,100908.91
2022-12-04T06:50:03.816Z,100908.78
2022-12-04T06:53:08.450Z,100914.22
2022-12-04T06:56:17.734Z,100914.94
2022-12-04T06:59:19.259Z,100910.47
2022-12-04T07:02:20.809Z,100915.91
2022-12-04T07:05:22.391Z,100911.50
2022-12-04T07:08:24.508Z,100919.63
2022-12-04T07:11:26.120Z,100921.63
2022-12-04T07:14:27.640Z,100918.94
2022-12-04T07:17:29.113Z,100923.50
2022-12-04T07:20:31.238Z,100913.66
2022-12-04T07:23:33.064Z,100921.81
2022-12-04T07:26:34.590Z,100911.81
2022-12-04T07:29:36.081Z,100913.66
2022-12-04T07:32:37.980Z,100915.38
2022-12-04T07:35:39.475Z,100921.63
2022-12-04T07:38:41.881Z,100922.34
2022-12-04T07:41:43.353Z,100920.66
2022-12-04T07:44:45.094Z,100922.22
2022-12-04T07:47:46.591Z,100915.78
2022-12-04T07:50:48.243Z,100914.63
2022-12-04T07:53:51.101Z,100908.03
2022-12-04T07:56:52.690Z,100915.88
2022-12-04T07:59:54.480Z,100926.44
2022-12-04T08:02:56.264Z,100919.84
2022-12-04T08:06:05.660Z,100916.69
2022-12-04T08:09:10.072Z,100917.41
2022-12-04T08:12:11.985Z,100909.13
2022-12-04T08:15:13.517Z,100914.25
2022-12-04T08:18:15.205Z,100915.81
2022-12-04T08:21:20.749Z,100918.91
2022-12-04T08:24:22.311Z,100916.03
2022-12-04T08:27:23.808Z,100923.03
2022-12-04T08:30:25.266Z,100920.03
2022-12-04T08:33:26.724Z,100926.13
2022-12-04T08:36:28.617Z,100923.41
2022-12-04T08:39:30.191Z,100925.16
2022-12-04T08:42:31.681Z,100920.56
2022-12-04T08:45:33.127Z,100922.56
2022-12-04T08:48:34.905Z,100926.13
2022-12-04T08:51:36.676Z,100919.16
2022-12-04T08:54:38.163Z,100923.59
2022-12-04T08:57:39.658Z,100918.31
2022-12-04T09:00:41.192Z,100921.88
2022-12-04T09:03:43.154Z,100918.31
2022-12-04T09:06:44.665Z,100924.75
2022-12-04T09:09:48.463Z,100923.03
2022-12-04T09:12:50.287Z,100927.59
2022-12-04T09:15:51.889Z,100928.63
2022-12-04T09:18:54.170Z,100923.19
2022-12-04T09:21:55.628Z,100919.63
2022-12-04T09:24:57.133Z,100921.31
2022-12-04T09:27:58.646Z,100926.44
2022-12-04T09:31:05.107Z,100930.72
2022-12-04T09:34:06.611Z,100922.13
2022-12-04T09:37:08.122Z,100925.69
2022-12-04T09:40:25.768Z,100920.81
2022-12-04T09:43:43.816Z,100926.25
2022-12-04T09:47:00.533Z,100924.94
2022-12-04T09:50:13.917Z,100921.06
2022-12-04T09:53:20.933Z,100918.03
2022-12-04T09:56:27.656Z,100924.03
2022-12-04T09:59:31.921Z,100919.13
2022-12-04T10:02:42.490Z,100912.41
2022-12-04T10:06:14.771Z,100908.53
2022-12-04T10:09:36.444Z,100913.63
2022-12-04T10:13:08.882Z,100906.19
2022-12-04T10:16:25.513Z,100903.31
2022-12-04T10:19:41.885Z,100910.47
2022-12-04T10:23:07.084Z,100905.03
2022-12-04T10:26:17.571Z,100902.31
2022-12-04T10:29:30.742Z,100909.44
2022-12-04T10:32:34.239Z,100903.16
2022-12-04T10:35:37.857Z,100901.28
2022-12-04T10:38:59.774Z,100896.72
2022-12-04T10:42:06.373Z,100895.72
2022-12-04T10:45:10.227Z,100901.16
2022-12-04T10:48:22.333Z,100909.13
2022-12-04T10:51:23.973Z,100901.88
2022-12-04T10:54:45.043Z,100905.28
2022-12-04T10:57:46.986Z,100901.72
2022-12-04T11:01:07.011Z,100903.28
2022-12-04T11:04:20.009Z,100892.41
2022-12-04T11:07:31.897Z,100894.13
2022-12-04T11:10:44.525Z,100887.66
2022-12-04T11:13:46.025Z,100872.38
2022-12-04T11:16:59.210Z,100869.50
2022-12-04T11:20:18.909Z,100866.78
2022-12-04T11:23:21.050Z,100868.66
2022-12-04T11:26:37.786Z,100863.22
2022-12-04T11:29:44.730Z,100855.06
2022-12-04T11:32:47.219Z,100864.06
2022-12-04T11:35:55.544Z,100861.19
2022-12-04T11:39:29.681Z,100861.91
2022-12-04T11:42:31.777Z,100852.03
2022-12-04T11:45:33.807Z,100862.91
2022-12-04T11:48:44.928Z,100866.31
2022-12-04T11:52:14.391Z,100861.72
2022-12-04T11:55:22.475Z,100859.19
2022-12-04T11:59:25.347Z,100866.31
2022-12-04T12:02:44.110Z,100856.63
2022-12-04T12:05:57.552Z,100853.91
2022-12-04T12:09:02.330Z,100865.09
2022-12-04T12:12:15.978Z,100854.03
2022-12-04T12:15:31.217Z,100859.47
2022-12-04T12:19:00.112Z,100856.09
2022-12-04T12:22:10.739Z,100851.63
2022-12-04T12:25:36.554Z,100852.50
2022-12-04T12:28:41.103Z,100850.78
2022-12-04T12:32:08.748Z,100847.22
2022-12-04T12:35:24.827Z,100848.22
2022-12-04T12:38:31.144Z,100838.38
2022-12-04T12:41:38.307Z,100831.06
2022-12-04T12:44:58.915Z,100830.22
2022-12-04T12:48:07.607Z,100832.94
2022-12-04T12:51:36.069Z,100827.50
2022-12-04T12:54:43.779Z,100825.81
2022-12-04T12:57:58.598Z,100821.34
2022-12-04T13:01:03.609Z,100815.19
2022-12-04T13:04:05.134Z,100813.50
2022-12-04T13:07:18.923Z,100822.34
2022-12-04T13:10:35.230Z,100814.03
2022-12-04T13:13:44.384Z,100805.03
2022-12-04T13:16:51.972Z,100796.03
2022-12-04T13:19:58.180Z,100806.91
2022-12-04T13:23:17.998Z,100800.44
2022-12-04T13:26:51.116Z,100799.78
2022-12-04T13:30:10.256Z,100793.47
2022-12-04T13:33:34.820Z,100798.91
2022-12-04T13:36:58.100Z,100790.75
2022-12-04T13:40:02.531Z,100797.19
2022-12-04T13:43:16.130Z,100786.19
2022-12-04T13:46:23.656Z,100780.56
2022-12-04T13:49:29.216Z,100788.91
2022-12-04T13:52:42.189Z,100790.59
2022-12-04T13:55:43.693Z,100787.03
2022-12-04T13:58:45.221Z,100787.03
2022-12-04T14:01:49.746Z,100784.13
2022-12-04T14:05:29.002Z,100770.44
2022-12-04T14:08:37.911Z,100770.56
2022-12-04T14:11:48.126Z,100766.88
2022-12-04T14:14:55.593Z,100760.44
2022-12-04T14:18:02.796Z,100757.72
2022-12-04T14:21:06.005Z,100754.16
2022-12-04T14:24:35.047Z,100754.00
2022-12-04T14:27:45.680Z,100753.28
2022-12-04T14:31:08.542Z,100756.84
2022-12-04T14:34:23.851Z,100753.41
2022-12-04T14:37:37.652Z,100756.13
2022-12-04T14:40:45.373Z,100756.31
2022-12-04T14:43:49.851Z,100751.00
2022-12-04T14:46:54.943Z,100751.72
2022-12-04T14:50:44.033Z,100752.56
2022-12-04T14:54:15.114Z,100753.41
2022-12-04T14:57:43.212Z,100758.00
2022-12-04T15:00:51.111Z,100756.13
2022-12-04T15:03:59.043Z,100763.31
2022-12-04T15:07:01.090Z,100763.44
2022-12-04T15:10:35.689Z,100759.69
2022-12-04T15:13:38.679Z,100762.41
2022-12-04T15:16:40.528Z,100763.31
2022-12-04T15:19:42.350Z,100760.59
2022-12-04T15:22:44.514Z,100763.31
2022-12-04T15:25:57.859Z,100756.84
2022-12-04T15:29:02.997Z,100767.72
2022-12-04T15:32:11.863Z,100769.41
2022-12-04T15:35:22.575Z,100773.03
2022-12-04T15:38:24.264Z,100774.00
2022-12-04T15:41:35.114Z,100792.16
2022-12-04T15:44:36.623Z,100777.50
2022-12-04T15:47:51.569Z,100780.63
2022-12-04T15:51:02.103Z,100780.88
2022-12-04T15:54:04.055Z,100786.59
2022-12-04T15:57:22.361Z,100768.94
2022-12-04T16:00:36.262Z,100780.44
2022-12-04T16:03:44.058Z,100779.50
2022-12-04T16:06:48.292Z,100783.19
2022-12-04T16:10:02.604Z,100784.09
2022-12-04T16:13:05.616Z,100784.34
2022-12-04T16:16:11.789Z,100789.00
2022-12-04T16:19:22.378Z,100801.25
2022-12-04T16:22:26.206Z,100797.06
2022-12-04T16:25:31.467Z,100799.47
2022-12-04T16:28:32.942Z,100799.16
2022-12-04T16:31:34.774Z,100792.56
2022-12-04T16:34:36.270Z,100799.53
2022-12-04T16:37:37.778Z,100794.81
2022-12-04T16:40:39.276Z,100790.22
2022-12-04T16:43:40.803Z,100795.50
2022-12-04T16:46:43.095Z,100805.34
2022-12-04T16:49:47.373Z,100814.34
2022-12-04T16:52:48.835Z,100809.09
2022-12-04T16:55:51.946Z,100809.09
2022-12-04T16:58:53.423Z,100807.38
2022-12-04T17:01:55.029Z,100805.69
2022-12-04T17:04:58.119Z,100816.53
2022-12-04T17:08:00.550Z,100811.94
2022-12-04T17:11:02.087Z,100810.25
2022-12-04T17:14:07.026Z,100821.97
2022-12-04T17:17:08.523Z,100816.69
2022-12-04T17:20:15.831Z,100822.81
2022-12-04T17:23:17.403Z,100822.13
2022-12-04T17:26:19.396Z,100825.69
2022-12-04T17:29:20.904Z,100821.28
2022-12-04T17:32:23.026Z,100824.84
2022-12-04T17:35:27.013Z,100822.97
2022-12-04T17:38:28.470Z,100822.97
2022-12-04T17:41:30.080Z,100820.25
2022-12-04T17:44:31.597Z,100817.53
2022-12-04T17:47:34.862Z,100819.25
2022-12-04T17:50:36.319Z,100810.09
2022-12-04T17:53:37.879Z,100809.09
2022-12-04T17:56:43.322Z,100806.19
2022-12-04T17:59:48.507Z,100814.22
2022-12-04T18:02:53.222Z,100817.66
2022-12-04T18:05:55.066Z,100816.63
2022-12-04T18:08:57.393Z,100813.78
2022-12-04T18:12:01.395Z,100816.16
2022-12-04T18:15:05.175Z,100817.03
2022-12-04T18:18:06.704Z,100816.00
2022-12-04T18:21:11.976Z,100819.28
2022-12-04T18:24:14.214Z,100816.56
2022-12-04T18:27:15.675Z,100822.00
2022-12-04T18:30:17.186Z,100814.69
2022-12-04T18:33:19.211Z,100817.41
2022-12-04T18:36:23.809Z,100812.81
2022-12-04T18:39:26.159Z,100810.94
2022-12-04T18:42:27.653Z,100815.72
2022-12-04T18:45:29.252Z,100813.00
2022-12-04T18:48:31.339Z,100814.69
2022-12-04T18:51:35.628Z,100796.69
2022-12-04T18:54:37.086Z,100798.38
2022-12-04T18:57:38.656Z,100797.53
2022-12-04T19:00:40.150Z,100794.81
2022-12-04T19:03:42.397Z,100797.69
2022-12-04T19:06:50.234Z,100803.09
2022-12-04T19:10:11.324Z,100792.94
2022-12-04T19:13:13.118Z,100794.81
2022-12-04T19:16:16.434Z,100801.09
2022-12-04T19:19:18.251Z,100804.84
2022-12-04T19:22:19.729Z,100802.97
2022-12-04T19:25:21.211Z,100799.22
2022-12-04T19:28:22.839Z,100810.09
2022-12-04T19:31:31.813Z,100799.22
2022-12-04T19:34:33.543Z,100793.97
2022-12-04T19:37:39.694Z,100800.41
2022-12-04T19:40:43.455Z,100803.28
2022-12-04T19:43:50.040Z,100816.69
2022-12-04T19:46:51.562Z,100810.56
2022-12-04T19:49:53.040Z,100812.59
2022-12-04T19:52:54.608Z,100809.88
2022-12-04T19:55:56.141Z,100807.31
2022-12-04T19:59:01.363Z,100812.75
2022-12-04T20:02:02.919Z,100811.06
2022-12-04T20:05:04.847Z,100812.91
2022-12-04T20:11:11.571Z,100817.47
2022-12-04T20:14:13.615Z,100800.34
2022-12-04T20:17:15.579Z,100804.06
2022-12-04T20:20:17.046Z,100807.63
2022-12-04T20:23:18.529Z,100806.78
2022-12-04T20:26:27.260Z,100806.63
2022-12-04T20:29:28.715Z,100804.06
2022-12-04T20:32:30.210Z,100805.75
2022-12-04T20:35:31.855Z,100799.47
2022-12-04T20:38:33.350Z,100794.06
2022-12-04T20:41:35.319Z,100804.06
2022-12-04T20:44:36.855Z,100805.75
2022-12-04T20:47:39.364Z,100797.63
2022-12-04T20:50:45.835Z,100800.34
2022-12-04T20:53:47.808Z,100800.19
2022-12-04T20:56:51.928Z,100795.59
2022-12-04T20:59:54.385Z,100799.16
2022-12-04T21:02:56.184Z,100798.31
2022-12-04T21:05:57.682Z,100801.03
2022-12-04T21:09:02.054Z,100786.44
2022-12-04T21:12:23.703Z,100784.56
2022-12-04T21:15:43.960Z,100766.56
2022-12-04T21:18:45.480Z,100773.16
2022-12-04T21:21:47.674Z,100776.91
2022-12-04T21:24:49.156Z,100776.91
2022-12-04T21:27:51.122Z,100772.44
2022-12-04T21:30:52.720Z,100765.31
2022-12-04T21:33:55.959Z,100764.28
2022-12-04T21:36:57.907Z,100760.84
2022-12-04T21:39:59.923Z,100755.59
2022-12-04T21:43:01.823Z,100762.91
2022-12-04T21:46:09.383Z,100759.31
2022-12-04T21:49:11.537Z,100754.91
2022-12-04T21:52:15.768Z,100748.63
2022-12-04T21:55:17.259Z,100752.50
2022-12-04T21:58:20.327Z,100743.50
2022-12-04T22:01:23.899Z,100753.50
2022-12-04T22:04:25.418Z,100750.13
2022-12-04T22:07:26.994Z,100746.69
2022-12-04T22:10:28.548Z,100742.25
2022-12-04T22:13:30.052Z,100749.72
2022-12-04T22:16:33.790Z,100757.88
2022-12-04T22:19:39.042Z,100762.59
2022-12-04T22:22:40.559Z,100765.31
2022-12-04T22:25:42.123Z,100766.50
2022-12-04T22:28:43.986Z,100762.94
2022-12-04T22:31:45.562Z,100762.22
2022-12-04T22:34:49.002Z,100764.94
2022-12-04T22:37:50.528Z,100758.81
2022-12-04T22:40:51.987Z,100753.53
2022-12-04T22:43:53.480Z,100757.13
2022-12-04T22:46:55.034Z,100759.81
2022-12-04T22:49:56.749Z,100754.53
2022-12-04T22:52:58.394Z,100768.97
2022-12-04T22:56:05.427Z,100756.22
2022-12-04T22:59:06.895Z,100753.00
2022-12-04T23:02:08.550Z,100749.44
2022-12-04T23:05:10.096Z,100749.44
2022-12-04T23:08:11.795Z,100749.56
2022-12-04T23:11:17.382Z,100746.72
2022-12-04T23:14:18.908Z,100750.59
2022-12-04T23:17:20.489Z,100744.31
2022-12-04T23:20:24.738Z,100744.47
2022-12-04T23:23:26.259Z,100748.03
2022-12-04T23:26:31.635Z,100746.16
2022-12-04T23:32:54.618Z,100742.75
2022-12-04T23:35:58.270Z,100751.59
2022-12-04T23:39:00.130Z,100753.44
2022-12-04T23:42:01.699Z,100745.47
2022-12-04T23:45:04.152Z,100742.91
2022-12-04T23:48:05.958Z,100749.19
2022-12-04T23:51:08.751Z,100745.63
2022-12-04T23:54:10.223Z,100748.47
2022-12-04T23:57:12.824Z,100750.34
